Palmer Municipal Airport Palmer US
ICAO: PAAQ
IATA:
Category: Medium
Scheduled Services:

Elevation: 242 ft
TransAlt. 18000 ft.

Airport Communications:
ANCHORAGE CNTR:118.6
ASOS:134.75
CTAF:123.6
RDO:123.6
KENAI RDO:123.6

PAAQ Zoom In..

If you have problems with the map follow the link
https://www.worldairports.se/pages/airport.php?
ICAO=PAAQ

Runways:

(A) RW 09 length 3617 ft width 75 ft
---- / hdg 93

(B) RW 16 length 6009 ft width 100 ft
---- / hdg 160

(C) RW 27 length 3617 ft width 75 ft
---- / hdg 273

(D) RW 34 length 6009 ft width 100 ft
---- / hdg 340

Location; PAAQ
Day. 20 / Time. 20.53 Zulu
* Altimeter: 30.07
* Temperature: -09° c. -15.8°f.
* Wind from: 000° Speed 00 kn.
Dewpoint: -11° c.
Visibility: 10 Statute Miles.
Clouds: Overcast 1000 ft.

PAAQ 202053Z 00000KT 10SM OVC100 M09/M11 A3007 RMK AO2 SLP189 T10941106 55010


Wind - Calm.

 
 
jpsmedia.com for Web Design worldairports.se 2019   terms of use